No particular awareness of the weather is required.    There are no Weather-warnings


Meteo18 Weather Cam more information Meteo18 Weather Cam


Thunder radar more information blitzortung!


Rain radar more information rain snow radar


Visit our other weather sites:

Template documentation
and downloads

And another site



Weather Underground History page Text

Daily Summary for October 13, 2017 Units:  Metric    English   Both
« Previous Day
Next Day »
Daily Weekly Monthly Yearly Custom
  High: Low: Average:
Temperature: 21.1 °C 8.4 °C 14.1 °C
Dew Point: 14.9 °C 8.0 °C 11.8 °C
Humidity: 98 % 63 % 88 %
Wind Speed: 9.7 km/h 0.0 km/h 0.8 km/h
Wind Gust: 14.5 km/h - -
Wind:- - SSE
Pressure: 1028.3 hPa 1026.3 hPa -
Precipitation: 0.5 mm    
Historical Graphs
 
 
Tabular Data for October 13, 2017
Time Temperature Dew Point Pressure Wind Wind Speed Wind Gust Humidity Rainfall Rate (Hourly)
00:02 11.6 °C 11.1 °C 1027.7 hPa Calm     97 % 0.0 mm
00:12 11.8 °C 11.3 °C 1027.7 hPa Calm     97 % 0.0 mm
00:17 11.6 °C 11.1 °C 1027.7 hPa Calm     97 % 0.0 mm
00:22 11.6 °C 11.1 °C 1027.7 hPa Calm     97 % 0.0 mm
00:27 11.3 °C 10.7 °C 1027.7 hPa Calm     96 % 0.0 mm
00:32 11.2 °C 10.7 °C 1027.7 hPa Calm     97 % 0.0 mm
00:37 11.3 °C 10.8 °C 1027.7 hPa Calm     97 % 0.0 mm
00:42 11.5 °C 11.0 °C 1027.7 hPa Calm     97 % 0.3 mm
00:52 11.2 °C 10.7 °C 1027.7 hPa Calm     97 % 0.3 mm
01:02 10.9 °C 10.4 °C 1027.7 hPa Calm     97 % 0.3 mm
01:12 10.7 °C 10.2 °C 1027.7 hPa Calm     97 % 0.3 mm
01:17 10.6 °C 10.1 °C 1027.7 hPa Calm     97 % 0.3 mm
01:22 10.6 °C 10.1 °C 1027.7 hPa Calm     97 % 0.3 mm
01:27 10.5 °C 10.0 °C 1027.7 hPa Calm     97 % 0.3 mm
01:32 10.5 °C 10.0 °C 1027.7 hPa Calm     97 % 0.3 mm
01:37 10.4 °C 9.9 °C 1027.7 hPa Calm     97 % 0.3 mm
01:42 10.3 °C 9.8 °C 1027.7 hPa Calm     97 % 0.0 mm
01:47 10.3 °C 9.8 °C 1027.7 hPa Calm     97 % 0.0 mm
01:52 10.2 °C 9.7 °C 1027.7 hPa Calm     97 % 0.0 mm
01:57 10.2 °C 9.7 °C 1027.7 hPa Calm     97 % 0.0 mm
02:02 10.3 °C 9.8 °C 1027.7 hPa Calm     97 % 0.0 mm
02:12 10.1 °C 9.6 °C 1027.7 hPa Calm     97 % 0.0 mm
02:17 10.3 °C 9.8 °C 1027.7 hPa Calm     97 % 0.0 mm
02:22 10.3 °C 9.8 °C 1027.7 hPa Calm     97 % 0.0 mm
02:27 10.6 °C 10.3 °C 1027.7 hPa Calm     98 % 0.0 mm
02:32 10.5 °C 10.0 °C 1027.7 hPa Calm     97 % 0.0 mm
02:42 10.1 °C 9.6 °C 1027.7 hPa Calm     97 % 0.0 mm
02:47 10.1 °C 9.6 °C 1027.7 hPa Calm     97 % 0.0 mm
02:52 9.9 °C 9.4 °C 1027.7 hPa Calm     97 % 0.0 mm
02:57 10.0 °C 9.5 °C 1027.7 hPa Calm     97 % 0.0 mm
03:02 9.9 °C 9.4 °C 1028.0 hPa Calm     97 % 0.0 mm
03:12 10.3 °C 10.0 °C 1027.7 hPa Calm     98 % 0.0 mm
03:17 10.3 °C 10.0 °C 1027.7 hPa Calm     98 % 0.0 mm
03:22 10.2 °C 9.9 °C 1027.7 hPa Calm     98 % 0.0 mm
03:27 9.9 °C 9.4 °C 1027.7 hPa Calm     97 % 0.0 mm
03:37 9.8 °C 9.3 °C 1027.7 hPa Calm     97 % 0.0 mm
03:42 9.9 °C 9.4 °C 1027.7 hPa Calm     97 % 0.0 mm
03:47 9.7 °C 9.2 °C 1027.7 hPa Calm     97 % 0.0 mm
03:52 9.8 °C 9.3 °C 1027.7 hPa Calm     97 % 0.0 mm
03:57 9.8 °C 9.3 °C 1027.7 hPa Calm     97 % 0.0 mm
04:02 10.1 °C 9.8 °C 1027.7 hPa Calm     98 % 0.0 mm
04:12 10.1 °C 9.8 °C 1027.7 hPa Calm     98 % 0.0 mm
04:17 10.1 °C 9.8 °C 1027.7 hPa Calm     98 % 0.0 mm
04:22 10.1 °C 9.8 °C 1027.7 hPa Calm     98 % 0.0 mm
04:32 10.1 °C 9.8 °C 1027.7 hPa Calm     98 % 0.0 mm
04:42 9.9 °C 9.4 °C 1027.7 hPa Calm     97 % 0.0 mm
04:47 9.8 °C 9.3 °C 1027.7 hPa Calm     97 % 0.0 mm
04:52 9.8 °C 9.3 °C 1027.7 hPa Calm     97 % 0.0 mm
04:57 9.7 °C 9.2 °C 1027.3 hPa Calm     97 % 0.0 mm
05:02 9.8 °C 9.3 °C 1027.7 hPa Calm     97 % 0.0 mm
05:07 9.9 °C 9.6 °C 1027.3 hPa Calm     98 % 0.0 mm
05:12 10.1 °C 9.8 °C 1027.7 hPa Calm     98 % 0.0 mm
05:22 10.1 °C 9.8 °C 1027.3 hPa Calm     98 % 0.0 mm
05:32 9.7 °C 9.2 °C 1027.3 hPa Calm     97 % 0.0 mm
05:42 9.5 °C 9.0 °C 1027.7 hPa Calm     97 % 0.0 mm
05:47 9.6 °C 9.1 °C 1027.7 hPa Calm     97 % 0.0 mm
05:52 9.4 °C 8.9 °C 1027.7 hPa Calm     97 % 0.0 mm
05:57 9.1 °C 8.6 °C 1027.7 hPa Calm     97 % 0.0 mm
06:02 8.9 °C 8.4 °C 1027.7 hPa Calm     97 % 0.0 mm
06:12 9.2 °C 8.9 °C 1027.3 hPa Calm     98 % 0.0 mm
06:17 9.2 °C 8.9 °C 1027.3 hPa Calm     98 % 0.0 mm
06:22 9.3 °C 9.0 °C 1027.7 hPa Calm     98 % 0.0 mm
06:27 9.2 °C 8.9 °C 1027.7 hPa Calm     98 % 0.0 mm
06:32 9.2 °C 8.9 °C 1027.7 hPa Calm     98 % 0.0 mm
06:37 9.2 °C 8.9 °C 1027.7 hPa Calm     98 % 0.0 mm
06:47 9.0 °C 8.7 °C 1027.7 hPa Calm     98 % 0.0 mm
06:52 8.9 °C 8.4 °C 1027.7 hPa Calm     97 % 0.0 mm
07:02 9.3 °C 9.0 °C 1027.7 hPa Calm     98 % 0.3 mm
07:12 9.1 °C 8.8 °C 1027.3 hPa Calm     98 % 0.3 mm
07:17 8.9 °C 8.4 °C 1027.3 hPa Calm     97 % 0.3 mm
07:22 8.8 °C 8.3 °C 1027.3 hPa Calm     97 % 0.3 mm
07:32 8.8 °C 8.3 °C 1027.3 hPa Calm     97 % 0.3 mm
07:42 9.2 °C 8.9 °C 1027.3 hPa Calm     98 % 0.3 mm
07:47 9.2 °C 8.9 °C 1027.3 hPa Calm   1.6 km/h 98 % 0.3 mm
07:52 9.2 °C 8.9 °C 1027.3 hPa Calm   1.6 km/h 98 % 0.3 mm
07:57 9.1 °C 8.8 °C 1027.3 hPa Calm   3.2 km/h 98 % 0.0 mm
08:02 8.8 °C 8.5 °C 1027.3 hPa North 1.6 km/h 3.2 km/h 98 % 0.0 mm
08:12 8.4 °C 8.0 °C 1027.7 hPa Calm   3.2 km/h 97 % 0.0 mm
08:17 8.4 °C 8.0 °C 1027.7 hPa Calm   3.2 km/h 97 % 0.0 mm
08:22 8.4 °C 8.0 °C 1027.7 hPa Calm   3.2 km/h 97 % 0.0 mm
08:27 8.4 °C 8.0 °C 1027.7 hPa Calm     97 % 0.0 mm
08:32 8.4 °C 8.0 °C 1027.7 hPa Calm     97 % 0.0 mm
08:42 8.5 °C 8.2 °C 1027.7 hPa Calm     98 % 0.0 mm
08:52 8.9 °C 8.6 °C 1027.7 hPa Calm     98 % 0.0 mm
09:02 9.3 °C 9.0 °C 1027.7 hPa Calm     98 % 0.0 mm
09:07 9.6 °C 9.3 °C 1027.7 hPa Calm     98 % 0.0 mm
09:12 9.7 °C 9.4 °C 1027.7 hPa Calm     98 % 0.0 mm
09:17 10.1 °C 9.8 °C 1027.7 hPa Calm     98 % 0.0 mm
09:22 10.4 °C 10.1 °C 1027.7 hPa Calm     98 % 0.0 mm
09:32 10.7 °C 10.4 °C 1027.7 hPa Calm     98 % 0.0 mm
09:37 10.8 °C 10.5 °C 1027.7 hPa Calm     98 % 0.0 mm
09:42 11.0 °C 10.7 °C 1027.7 hPa Calm     98 % 0.0 mm
09:52 11.3 °C 11.0 °C 1027.7 hPa Calm     98 % 0.0 mm
09:57 11.4 °C 11.1 °C 1027.7 hPa Calm     98 % 0.0 mm
10:02 11.5 °C 11.2 °C 1027.7 hPa Calm     98 % 0.0 mm
10:12 11.6 °C 11.3 °C 1028.0 hPa Calm     98 % 0.0 mm
10:17 11.7 °C 11.4 °C 1028.0 hPa Calm     98 % 0.0 mm
10:22 11.9 °C 11.6 °C 1028.0 hPa Calm     98 % 0.0 mm
10:27 12.2 °C 11.9 °C 1028.0 hPa Calm     98 % 0.0 mm
10:32 12.6 °C 12.3 °C 1028.0 hPa Calm     98 % 0.0 mm
10:42 12.6 °C 12.3 °C 1028.0 hPa Calm   1.6 km/h 98 % 0.0 mm
10:52 13.2 °C 12.9 °C 1028.0 hPa Calm   1.6 km/h 98 % 0.0 mm
10:57 13.4 °C 13.1 °C 1028.0 hPa Calm   3.2 km/h 98 % 0.0 mm
11:02 13.5 °C 13.2 °C 1028.0 hPa Calm   3.2 km/h 98 % 0.0 mm
11:12 13.6 °C 13.3 °C 1028.3 hPa Calm   3.2 km/h 98 % 0.0 mm
11:17 13.4 °C 12.9 °C 1028.3 hPa Calm     97 % 0.0 mm
11:22 13.6 °C 13.1 °C 1028.3 hPa Calm     97 % 0.0 mm
11:32 13.9 °C 13.6 °C 1028.3 hPa Calm     98 % 0.0 mm
11:42 14.2 °C 13.7 °C 1028.3 hPa ENE 4.8 km/h   97 % 0.0 mm
11:52 14.7 °C 14.2 °C 1028.3 hPa Calm   4.8 km/h 97 % 0.0 mm
11:57 14.9 °C 14.4 °C 1028.3 hPa Calm   8.0 km/h 97 % 0.0 mm
12:02 15.1 °C 14.3 °C 1028.3 hPa ENE 3.2 km/h 8.0 km/h 95 % 0.0 mm
12:12 15.7 °C 14.2 °C 1028.3 hPa East 3.2 km/h 9.7 km/h 91 % 0.0 mm
12:17 15.8 °C 14.0 °C 1028.3 hPa Calm   9.7 km/h 89 % 0.0 mm
12:22 16.1 °C 13.9 °C 1028.3 hPa East 1.6 km/h 8.0 km/h 87 % 0.0 mm
12:32 16.7 °C 14.3 °C 1028.0 hPa ESE 4.8 km/h 6.4 km/h 86 % 0.0 mm
12:42 16.8 °C 14.1 °C 1028.0 hPa SSE 1.6 km/h 6.4 km/h 84 % 0.0 mm
12:52 17.3 °C 14.2 °C 1028.0 hPa ESE 4.8 km/h 9.7 km/h 82 % 0.0 mm
13:02 17.4 °C 14.1 °C 1028.0 hPa East 4.8 km/h 9.7 km/h 81 % 0.0 mm
13:12 17.7 °C 14.4 °C 1027.7 hPa East 1.6 km/h 9.7 km/h 81 % 0 mm
13:17 17.8 °C 14.3 °C 1027.7 hPa Calm   9.7 km/h 80 % 0.0 mm
13:22 17.9 °C 14.4 °C 1027.7 hPa ENE 1.6 km/h 9.7 km/h 80 % 0.0 mm
13:32 18.4 °C 14.5 °C 1027.7 hPa ENE 4.8 km/h 9.7 km/h 78 % 0.0 mm
13:42 18.6 °C 14.7 °C 1027.7 hPa ENE 3.2 km/h 6.4 km/h 78 % 0.0 mm
13:47 18.6 °C 14.9 °C 1027.7 hPa East 9.7 km/h 11.3 km/h 79 % 0.0 mm
13:52 18.6 °C 14.5 °C 1027.7 hPa ENE 4.8 km/h 11.3 km/h 77 % 0.0 mm
14:02 18.8 °C 14.3 °C 1027.3 hPa ESE 4.8 km/h 12.9 km/h 75 % 0.0 mm
14:12 19.1 °C 14.1 °C 1027.3 hPa East 1.6 km/h 9.7 km/h 73 % 0.0 mm
14:17 19.2 °C 14.2 °C 1027.3 hPa ENE 3.2 km/h 14.5 km/h 73 % 0.0 mm
14:22 19.4 °C 14.2 °C 1027.3 hPa East 8.0 km/h 14.5 km/h 72 % 0.0 mm
14:27 19.5 °C 14.1 °C 1027.3 hPa SE 1.6 km/h 14.5 km/h 71 % 0.0 mm
14:32 19.7 °C 14.1 °C 1027.3 hPa ESE 3.2 km/h 11.3 km/h 70 % 0.0 mm
14:42 20.1 °C 14.5 °C 1027.0 hPa East 6.4 km/h 8.0 km/h 70 % 0.0 mm
14:47 20.1 °C 14.0 °C 1027.0 hPa SSE 4.8 km/h 9.7 km/h 68 % 0.0 mm
14:52 20.2 °C 14.3 °C 1027.0 hPa Calm   9.7 km/h 69 % 0.0 mm
14:57 20.3 °C 14.4 °C 1027.0 hPa ENE 4.8 km/h 9.7 km/h 69 % 0.0 mm
15:02 20.2 °C 14.1 °C 1027.0 hPa SSE 3.2 km/h 8.0 km/h 68 % 0.0 mm
15:12 20.4 °C 14.3 °C 1027.0 hPa Calm   8.0 km/h 68 % 0.0 mm
15:17 20.7 °C 14.4 °C 1027.0 hPa ENE 1.6 km/h 6.4 km/h 67 % 0.0 mm
15:22 20.8 °C 14.4 °C 1027.0 hPa SSW 1.6 km/h 6.4 km/h 67 % 0.0 mm
15:32 20.6 °C 14.0 °C 1027.0 hPa Calm   6.4 km/h 66 % 0.0 mm
15:37 20.4 °C 14.3 °C 1027.0 hPa Calm   6.4 km/h 68 % 0.0 mm
15:42 20.6 °C 14.5 °C 1027.0 hPa Calm   6.4 km/h 68 % 0.0 mm
15:47 20.7 °C 14.4 °C 1027.0 hPa East 3.2 km/h 12.9 km/h 67 % 0.0 mm
15:52 20.9 °C 14.3 °C 1027.0 hPa Calm   12.9 km/h 66 % 0.0 mm
15:57 20.8 °C 14.0 °C 1027.0 hPa Calm   12.9 km/h 65 % 0.0 mm
16:02 20.8 °C 14.4 °C 1027.0 hPa NE 1.6 km/h 6.4 km/h 67 % 0.0 mm
16:07 20.7 °C 14.4 °C 1027.0 hPa North 3.2 km/h 6.4 km/h 67 % 0.0 mm
16:12 20.7 °C 14.1 °C 1027.0 hPa Calm   6.4 km/h 66 % 0.0 mm
16:17 20.7 °C 14.1 °C 1026.6 hPa ENE 3.2 km/h 6.4 km/h 66 % 0.0 mm
16:22 20.7 °C 14.1 °C 1026.6 hPa Calm   6.4 km/h 66 % 0.0 mm
16:32 20.8 °C 14.0 °C 1026.6 hPa East 3.2 km/h 4.8 km/h 65 % 0.0 mm
16:37 20.9 °C 14.1 °C 1026.6 hPa Calm   8.0 km/h 65 % 0.0 mm
16:42 21.1 °C 14.0 °C 1026.6 hPa East 3.2 km/h 8.0 km/h 64 % 0.0 mm
16:47 21.0 °C 14.2 °C 1026.6 hPa ENE 3.2 km/h 8.0 km/h 65 % 0.0 mm
16:52 21.0 °C 13.9 °C 1026.6 hPa ENE 3.2 km/h 8.0 km/h 64 % 0.0 mm
16:57 21.1 °C 14.0 °C 1026.6 hPa NE 3.2 km/h 8.0 km/h 64 % 0.0 mm
17:02 21.0 °C 13.9 °C 1026.6 hPa Calm   6.4 km/h 64 % 0.0 mm
17:12 21.1 °C 14.3 °C 1026.6 hPa Calm   6.4 km/h 65 % 0.0 mm
17:17 21.1 °C 13.8 °C 1026.6 hPa ENE 3.2 km/h 4.8 km/h 63 % 0.0 mm
17:22 20.9 °C 13.6 °C 1026.6 hPa ENE 4.8 km/h 6.4 km/h 63 % 0.0 mm
17:32 20.8 °C 13.7 °C 1026.6 hPa East 1.6 km/h 4.8 km/h 64 % 0.0 mm
17:37 20.8 °C 14.0 °C 1026.6 hPa Calm   4.8 km/h 65 % 0.0 mm
17:47 20.8 °C 13.7 °C 1026.6 hPa East 1.6 km/h 4.8 km/h 64 % 0.0 mm
17:52 20.8 °C 13.7 °C 1026.6 hPa ENE 3.2 km/h 4.8 km/h 64 % 0.0 mm
17:57 20.8 °C 13.7 °C 1026.6 hPa ENE 1.6 km/h 4.8 km/h 64 % 0.0 mm
18:02 20.8 °C 14.0 °C 1026.6 hPa Calm   4.8 km/h 65 % 0.0 mm
18:07 20.8 °C 14.0 °C 1026.6 hPa East 1.6 km/h 4.8 km/h 65 % 0.0 mm
18:12 20.7 °C 14.1 °C 1026.6 hPa Calm   3.2 km/h 66 % 0.0 mm
18:17 20.7 °C 14.1 °C 1026.6 hPa Calm   1.6 km/h 66 % 0.0 mm
18:27 20.6 °C 14.3 °C 1026.3 hPa Calm     67 % 0.0 mm
18:32 20.6 °C 14.0 °C 1026.3 hPa Calm     66 % 0.0 mm
18:42 20.5 °C 14.4 °C 1026.3 hPa Calm     68 % 0.0 mm
18:47 20.1 °C 14.5 °C 1026.6 hPa Calm     70 % 0.0 mm
18:52 19.6 °C 14.2 °C 1026.6 hPa Calm     71 % 0.0 mm
18:57 19.0 °C 14.0 °C 1026.6 hPa Calm     73 % 0.0 mm
19:02 18.7 °C 14.0 °C 1026.6 hPa Calm     74 % 0.0 mm
19:07 18.3 °C 13.8 °C 1026.6 hPa Calm     75 % 0.0 mm
19:12 17.9 °C 14.0 °C 1026.6 hPa Calm     78 % 0.0 mm
19:17 17.4 °C 13.7 °C 1026.6 hPa Calm     79 % 0.0 mm
19:22 17.2 °C 13.7 °C 1026.6 hPa Calm     80 % 0.0 mm
19:27 17.2 °C 13.7 °C 1026.6 hPa Calm     80 % 0.0 mm
19:37 16.7 °C 13.6 °C 1026.6 hPa WNW 1.6 km/h 1.6 km/h 82 % 0.0 mm
19:42 16.3 °C 13.8 °C 1026.6 hPa WNW 1.6 km/h 1.6 km/h 85 % 0.0 mm
19:47 16.2 °C 13.7 °C 1026.6 hPa Calm   1.6 km/h 85 % 0.0 mm
19:52 16.3 °C 13.6 °C 1026.6 hPa North 1.6 km/h 3.2 km/h 84 % 0.0 mm
19:57 16.2 °C 13.5 °C 1026.6 hPa Calm   3.2 km/h 84 % 0.0 mm
20:02 16.1 °C 13.4 °C 1026.6 hPa Calm   3.2 km/h 84 % 0.0 mm
20:12 15.8 °C 13.3 °C 1026.6 hPa NNW 3.2 km/h 3.2 km/h 85 % 0.0 mm
20:17 15.9 °C 13.2 °C 1026.6 hPa NNW 3.2 km/h 3.2 km/h 84 % 0.0 mm
20:22 15.8 °C 12.9 °C 1027.0 hPa Calm   3.2 km/h 83 % 0.0 mm
20:27 15.6 °C 13.1 °C 1027.0 hPa NW 1.6 km/h 3.2 km/h 85 % 0.0 mm
20:37 15.4 °C 12.9 °C 1027.0 hPa NW 3.2 km/h 3.2 km/h 85 % 0.0 mm
20:47 15.3 °C 12.8 °C 1027.0 hPa Calm   3.2 km/h 85 % 0.0 mm
20:52 15.2 °C 12.9 °C 1027.0 hPa NNW 1.6 km/h 3.2 km/h 86 % 0.0 mm
20:57 15.1 °C 12.8 °C 1027.3 hPa Calm   3.2 km/h 86 % 0.0 mm
21:02 14.9 °C 12.6 °C 1027.0 hPa Calm   3.2 km/h 86 % 0.0 mm
21:12 14.8 °C 12.8 °C 1027.0 hPa Calm   1.6 km/h 88 % 0.0 mm
21:17 14.9 °C 12.8 °C 1027.0 hPa Calm   1.6 km/h 87 % 0.0 mm
21:22 15.0 °C 12.9 °C 1027.3 hPa Calm   1.6 km/h 87 % 0.0 mm
21:32 14.9 °C 12.6 °C 1027.0 hPa WNW 1.6 km/h 1.6 km/h 86 % 0.0 mm
21:37 14.4 °C 12.6 °C 1027.0 hPa Calm   1.6 km/h 89 % 0.0 mm
21:42 14.2 °C 12.4 °C 1027.0 hPa Calm   1.6 km/h 89 % 0.0 mm
21:47 14.0 °C 12.6 °C 1027.0 hPa Calm   3.2 km/h 91 % 0.0 mm
21:52 14.1 °C 12.7 °C 1027.3 hPa Calm   3.2 km/h 91 % 0.0 mm
21:57 14.1 °C 12.5 °C 1027.0 hPa Calm   1.6 km/h 90 % 0.0 mm
22:02 14.2 °C 12.6 °C 1027.0 hPa North 1.6 km/h 1.6 km/h 90 % 0.0 mm
22:12 14.2 °C 12.6 °C 1027.0 hPa Calm   1.6 km/h 90 % 0.0 mm
22:22 14.1 °C 12.3 °C 1027.0 hPa Calm   1.6 km/h 89 % 0.0 mm
22:32 13.6 °C 12.2 °C 1027.3 hPa WNW 1.6 km/h 3.2 km/h 91 % 0.0 mm
22:37 13.3 °C 12.0 °C 1027.3 hPa WNW 1.6 km/h 3.2 km/h 92 % 0.0 mm
22:42 13.1 °C 11.8 °C 1027.3 hPa WNW 1.6 km/h 3.2 km/h 92 % 0.0 mm
22:52 13.3 °C 12.4 °C 1027.3 hPa NNW 1.6 km/h 3.2 km/h 94 % 0.0 mm
22:57 13.4 °C 12.3 °C 1027.3 hPa Calm   3.2 km/h 93 % 0.0 mm
23:02 13.3 °C 12.0 °C 1027.3 hPa Calm   3.2 km/h 92 % 0.0 mm
23:12 13.4 °C 12.3 °C 1027.3 hPa Calm   1.6 km/h 93 % 0.0 mm
23:17 13.4 °C 12.3 °C 1027.3 hPa Calm   1.6 km/h 93 % 0.0 mm
23:22 13.4 °C 12.3 °C 1027.3 hPa Calm   1.6 km/h 93 % 0.0 mm
23:32 13.4 °C 12.1 °C 1027.3 hPa Calm   1.6 km/h 92 % 0.0 mm
23:37 13.3 °C 12.0 °C 1027.3 hPa Calm   1.6 km/h 92 % 0.0 mm
23:42 13.0 °C 11.7 °C 1027.3 hPa Calm     92 % 0.0 mm
23:47 12.9 °C 11.6 °C 1027.3 hPa WNW 3.2 km/h   92 % 0.0 mm
23:52 12.7 °C 11.6 °C 1027.3 hPa WNW 1.6 km/h 3.2 km/h 93 % 0.0 mm
23:57 12.4 °C 11.3 °C 1027.0 hPa WNW 1.6 km/h 3.2 km/h 93 % 0.0 mm
Meteo18
Compliments of Weather Underground - 4 mb

Script developed by  Jim McMurry - jmcmurry@mwt.net Adapted for the template by  Wim van der Kuil - Leuven-Template.eu

You find our weather info also at:

European Weather Network

Weather Underground

Equipment we use:

Weather-station
Davis Vue

Weather-program
Meteohub

Weather-server
Raspberry PI 2 B+

Provider
1 and 1

Davis Vue

Meteohub

Raspberry PI 2 B+

1 and 1